M12 weather

Steele Municipal Airport
Steele, Missouri, United States

Public forecast

Using degrees Fahrenheit for public forecast. Weather courtesy of forecast.io.

METAR (pilot weather report)

Report is more than 6 hours old.

Closest report is Arkansas International Airport, 8.8 nm (16.3 km) SSW. Retrieved 2019/05/24 20:50 UTC (2 days ago):

KBYH 242050Z 22009G19KT 10SM SCT065 34/18 A3006 RMK LAST

TAF (pilot weather forecast)

Closest forecast is Jonesboro Municipal Airport, 41.2 nm (76.3 km) WSW. Retrieved 2019/05/27 06:22 UTC (30 minutes ago):

TAF KJBR 270520Z 2706/2806 VRB03KT P6SM BKN250 FM271400 22010G16KT P6SM SCT250 FM271600 21015G22KT P6SM FEW050 SCT250 FM280000 20008KT P6SM FEW250